createdAt,value
2018-06-28T00:02:04.098Z,63.80
2018-06-28T00:04:09.734Z,63.80
2018-06-28T00:06:17.352Z,63.80
2018-06-28T00:08:24.300Z,64.00
2018-06-28T00:12:36.807Z,64.10
2018-06-28T00:14:42.221Z,64.00
2018-06-28T00:16:51.570Z,63.70
2018-06-28T00:18:55.922Z,63.60
2018-06-28T00:21:00.039Z,63.60
2018-06-28T00:23:04.559Z,63.80
2018-06-28T00:25:09.204Z,63.80
2018-06-28T00:27:15.340Z,63.90
2018-06-28T00:29:21.276Z,64.00
2018-06-28T00:31:25.301Z,64.20
2018-06-28T00:35:42.836Z,64.30
2018-06-28T00:37:47.940Z,64.40
2018-06-28T00:39:52.152Z,64.50
2018-06-28T00:41:57.612Z,64.50
2018-06-28T00:44:05.351Z,64.40
2018-06-28T00:46:13.635Z,64.00
2018-06-28T00:48:20.439Z,64.00
2018-06-28T00:50:25.450Z,64.20
2018-06-28T00:52:31.148Z,64.20
2018-06-28T00:54:41.542Z,64.50
2018-06-28T00:56:46.986Z,64.60
2018-06-28T00:58:52.147Z,64.50
2018-06-28T01:00:59.618Z,64.50
2018-06-28T01:03:04.813Z,64.60
2018-06-28T01:05:10.082Z,64.60
2018-06-28T01:07:17.002Z,64.70
2018-06-28T01:09:22.443Z,64.70
2018-06-28T01:11:26.456Z,64.60
2018-06-28T01:13:30.947Z,64.50
2018-06-28T01:18:17.965Z,64.70
2018-06-28T01:20:36.458Z,64.80
2018-06-28T01:22:46.892Z,64.70
2018-06-28T01:25:07.564Z,64.80
2018-06-28T01:27:17.360Z,64.80
2018-06-28T01:31:43.396Z,64.90
2018-06-28T01:41:50.397Z,65.40
2018-06-28T01:43:59.051Z,64.60
2018-06-28T01:46:05.033Z,64.50
2018-06-28T01:48:14.165Z,64.50
2018-06-28T01:50:28.600Z,64.50
2018-06-28T01:52:35.925Z,64.50
2018-06-28T01:54:46.775Z,64.60
2018-06-28T01:56:57.344Z,64.50
2018-06-28T01:59:07.809Z,64.60
2018-06-28T02:03:27.435Z,64.50
2018-06-28T02:05:33.108Z,64.60
2018-06-28T02:07:45.184Z,64.80
2018-06-28T02:09:56.421Z,64.90
2018-06-28T02:12:03.251Z,65.00
2018-06-28T02:14:15.351Z,64.90
2018-06-28T02:18:44.648Z,65.00
2018-06-28T02:20:56.865Z,65.20
2018-06-28T02:25:26.297Z,65.40
2018-06-28T02:27:35.003Z,65.40
2018-06-28T02:29:48.283Z,65.60
2018-06-28T02:31:59.206Z,65.40
2018-06-28T02:34:05.689Z,65.60
2018-06-28T02:36:10.292Z,65.50
2018-06-28T02:38:15.094Z,65.40
2018-06-28T02:40:22.028Z,65.30
2018-06-28T02:44:37.013Z,64.90
2018-06-28T02:46:46.436Z,64.90
2018-06-28T02:49:01.018Z,65.00
2018-06-28T02:51:07.578Z,65.00
2018-06-28T02:55:33.482Z,65.30
2018-06-28T02:57:41.660Z,65.30
2018-06-28T02:59:48.547Z,65.30
2018-06-28T03:02:00.959Z,65.40
2018-06-28T03:04:11.380Z,65.50
2018-06-28T03:18:04.756Z,66.40
2018-06-28T03:20:14.225Z,66.30
2018-06-28T03:22:25.988Z,66.20
2018-06-28T03:26:56.796Z,65.90
2018-06-28T03:29:18.457Z,65.80
2018-06-28T03:31:29.432Z,66.20
2018-06-28T03:33:42.417Z,66.90
2018-06-28T03:35:46.654Z,67.20
2018-06-28T03:37:53.886Z,67.10
2018-06-28T03:40:01.630Z,67.30
2018-06-28T03:42:07.857Z,67.30
2018-06-28T03:48:54.452Z,67.80
2018-06-28T03:51:12.207Z,67.80
2018-06-28T03:55:45.247Z,68.40
2018-06-28T03:57:53.904Z,68.40
2018-06-28T04:00:10.422Z,68.20
2018-06-28T04:05:07.977Z,68.40
2018-06-28T04:07:13.292Z,68.00
2018-06-28T04:09:18.411Z,67.80
2018-06-28T04:11:22.473Z,68.10
2018-06-28T04:13:26.534Z,68.10
2018-06-28T04:15:30.635Z,67.70
2018-06-28T04:17:34.933Z,67.50
2018-06-28T04:19:38.988Z,67.30
2018-06-28T04:21:44.776Z,66.60
2018-06-28T04:23:48.836Z,66.40
2018-06-28T04:25:53.466Z,65.90
2018-06-28T04:27:57.624Z,65.40
2018-06-28T04:32:09.339Z,64.60
2018-06-28T04:36:17.847Z,63.90
2018-06-28T04:38:22.303Z,63.70
2018-06-28T04:40:26.332Z,63.30
2018-06-28T04:42:30.743Z,63.10
2018-06-28T04:44:40.072Z,62.60
2018-06-28T04:46:44.049Z,61.90
2018-06-28T04:48:48.011Z,61.20
2018-06-28T04:50:52.412Z,60.90
2018-06-28T04:52:56.370Z,60.90
2018-06-28T04:55:00.381Z,60.80
2018-06-28T04:57:06.240Z,61.00
2018-06-28T04:59:10.381Z,60.60
2018-06-28T05:01:14.456Z,59.90
2018-06-28T05:03:20.512Z,59.40
2018-06-28T05:07:31.989Z,59.80
2018-06-28T05:09:35.984Z,59.20
2018-06-28T05:11:42.593Z,59.40
2018-06-28T05:13:46.557Z,59.30
2018-06-28T05:15:54.264Z,59.00
2018-06-28T05:17:58.296Z,58.80
2018-06-28T05:20:02.625Z,59.10
2018-06-28T05:22:07.779Z,59.00
2018-06-28T05:24:11.736Z,59.20
2018-06-28T05:26:16.330Z,59.40
2018-06-28T05:28:22.564Z,59.30
2018-06-28T05:30:30.594Z,59.60
2018-06-28T05:32:35.438Z,59.70
2018-06-28T05:34:40.216Z,59.30
2018-06-28T05:36:45.264Z,59.80
2018-06-28T05:38:49.822Z,60.00
2018-06-28T05:40:55.897Z,59.80
2018-06-28T05:43:01.870Z,59.40
2018-06-28T05:45:08.616Z,58.80
2018-06-28T05:47:22.375Z,58.60
2018-06-28T05:49:46.399Z,58.10
2018-06-28T05:51:50.594Z,58.20
2018-06-28T05:53:59.841Z,57.80
2018-06-28T05:56:04.768Z,58.10
2018-06-28T05:58:08.837Z,58.10
2018-06-28T06:00:14.290Z,57.90
2018-06-28T06:02:19.017Z,58.00
2018-06-28T06:04:23.092Z,57.70
2018-06-28T06:06:30.748Z,57.90
2018-06-28T06:08:35.346Z,58.10
2018-06-28T06:10:44.142Z,58.20
2018-06-28T06:12:52.473Z,58.20
2018-06-28T06:14:57.116Z,58.00
2018-06-28T06:17:01.019Z,58.00
2018-06-28T06:19:05.919Z,58.00
2018-06-28T06:21:11.083Z,58.50
2018-06-28T06:23:15.042Z,58.40
2018-06-28T06:25:24.153Z,57.90
2018-06-28T06:27:28.113Z,56.90
2018-06-28T06:29:32.414Z,56.40
2018-06-28T06:31:42.842Z,55.60
2018-06-28T06:33:47.127Z,55.90
2018-06-28T06:35:51.131Z,56.10
2018-06-28T06:37:59.627Z,56.00
2018-06-28T06:40:04.564Z,56.00
2018-06-28T06:42:09.576Z,55.90
2018-06-28T06:44:14.860Z,55.60
2018-06-28T06:46:19.086Z,54.90
2018-06-28T06:48:23.673Z,55.00
2018-06-28T06:52:37.465Z,54.20
2018-06-28T06:54:55.197Z,54.40
2018-06-28T06:57:03.694Z,54.50
2018-06-28T06:59:09.656Z,54.20
2018-06-28T07:01:18.735Z,54.20
2018-06-28T07:03:32.161Z,54.60
2018-06-28T07:05:36.520Z,54.00
2018-06-28T07:07:41.441Z,54.00
2018-06-28T07:09:45.409Z,53.80
2018-06-28T07:11:49.474Z,53.10
2018-06-28T07:13:54.598Z,52.60
2018-06-28T07:15:59.548Z,52.40
2018-06-28T07:18:07.898Z,52.40
2018-06-28T07:20:14.199Z,52.20
2018-06-28T07:22:18.680Z,51.80
2018-06-28T07:24:22.692Z,52.30
2018-06-28T07:26:26.879Z,52.40
2018-06-28T07:28:33.731Z,52.50
2018-06-28T07:30:37.680Z,52.30
2018-06-28T07:32:43.352Z,51.70
2018-06-28T07:34:47.822Z,50.70
2018-06-28T07:36:53.315Z,50.70
2018-06-28T07:38:58.847Z,51.10
2018-06-28T07:41:06.564Z,51.80
2018-06-28T07:43:20.211Z,52.00
2018-06-28T07:45:29.825Z,51.90
2018-06-28T07:47:41.365Z,52.10
2018-06-28T07:49:46.863Z,52.00
2018-06-28T07:52:07.262Z,51.00
2018-06-28T07:54:14.877Z,50.60
2018-06-28T07:56:27.301Z,49.90
2018-06-28T08:01:17.918Z,50.10
2018-06-28T08:03:23.435Z,49.30
2018-06-28T08:05:29.499Z,48.90
2018-06-28T08:07:44.563Z,49.30
2018-06-28T08:09:50.477Z,49.20
2018-06-28T08:11:56.210Z,48.80
2018-06-28T08:14:00.571Z,48.60
2018-06-28T08:16:05.682Z,48.30
2018-06-28T08:18:13.951Z,48.10
2018-06-28T08:20:18.359Z,47.70
2018-06-28T08:22:22.383Z,47.80
2018-06-28T08:24:30.226Z,48.50
2018-06-28T08:26:36.947Z,48.10
2018-06-28T08:28:42.198Z,48.30
2018-06-28T08:30:47.837Z,47.80
2018-06-28T08:32:52.804Z,47.60
2018-06-28T08:34:56.880Z,47.80
2018-06-28T08:37:01.749Z,48.50
2018-06-28T08:39:11.091Z,48.50
2018-06-28T08:41:26.829Z,48.70
2018-06-28T08:43:44.087Z,48.80
2018-06-28T08:45:48.889Z,48.90
2018-06-28T08:47:55.358Z,48.70
2018-06-28T08:50:03.472Z,48.70
2018-06-28T08:52:07.983Z,48.70
2018-06-28T08:54:12.733Z,48.60
2018-06-28T08:56:20.458Z,48.20
2018-06-28T08:58:27.170Z,48.20
2018-06-28T09:00:32.112Z,48.20
2018-06-28T09:02:38.390Z,48.20
2018-06-28T09:04:47.570Z,47.90
2018-06-28T09:06:53.518Z,48.30
2018-06-28T09:08:58.406Z,48.20
2018-06-28T09:11:03.598Z,47.80
2018-06-28T09:13:08.671Z,48.50
2018-06-28T09:15:14.574Z,48.90
2018-06-28T09:17:21.990Z,48.40
2018-06-28T09:19:27.852Z,48.30
2018-06-28T09:21:35.315Z,48.30
2018-06-28T09:23:44.648Z,47.20
2018-06-28T09:25:50.319Z,47.60
2018-06-28T09:27:55.347Z,47.60
2018-06-28T09:30:00.811Z,47.60
2018-06-28T09:32:08.764Z,47.60
2018-06-28T09:34:13.564Z,47.60
2018-06-28T09:36:19.079Z,47.40
2018-06-28T09:38:24.605Z,47.20
2018-06-28T09:40:29.631Z,47.20
2018-06-28T09:42:35.656Z,46.00
2018-06-28T09:44:40.335Z,46.50
2018-06-28T09:46:47.754Z,46.40
2018-06-28T09:48:54.142Z,45.90
2018-06-28T09:50:58.939Z,45.50
2018-06-28T09:53:11.419Z,45.00
2018-06-28T09:58:09.128Z,45.60
2018-06-28T10:00:27.730Z,45.20
2018-06-28T10:02:46.026Z,45.60
2018-06-28T10:04:57.419Z,45.70
2018-06-28T10:09:19.412Z,47.00
2018-06-28T10:11:23.799Z,47.50
2018-06-28T10:13:29.746Z,46.90
2018-06-28T10:15:34.481Z,47.10
2018-06-28T10:17:39.391Z,46.70
2018-06-28T10:19:45.312Z,46.40
2018-06-28T10:21:50.619Z,46.00
2018-06-28T10:24:06.416Z,46.30
2018-06-28T10:26:24.990Z,47.00
2018-06-28T10:28:35.766Z,47.30
2018-06-28T10:30:40.705Z,47.40
2018-06-28T10:32:48.863Z,47.30
2018-06-28T10:34:55.018Z,46.70
2018-06-28T10:36:59.223Z,46.40
2018-06-28T10:39:18.188Z,46.40
2018-06-28T10:41:24.715Z,46.60
2018-06-28T10:43:33.487Z,46.30
2018-06-28T10:45:42.795Z,46.10
2018-06-28T10:47:49.838Z,45.50
2018-06-28T10:49:54.906Z,45.40
2018-06-28T10:52:00.298Z,45.70
2018-06-28T10:54:08.359Z,44.80
2018-06-28T10:56:13.812Z,43.80
2018-06-28T10:58:25.286Z,43.70
2018-06-28T11:00:30.820Z,43.80
2018-06-28T11:02:36.376Z,43.80
2018-06-28T11:04:43.427Z,43.40
2018-06-28T11:06:47.870Z,43.50
2018-06-28T11:08:55.112Z,43.30
2018-06-28T11:11:00.086Z,42.90
2018-06-28T11:13:13.249Z,42.80
2018-06-28T11:15:18.275Z,42.70
2018-06-28T11:17:23.420Z,42.00
2018-06-28T11:19:31.343Z,42.70
2018-06-28T11:21:36.324Z,42.40
2018-06-28T11:23:41.062Z,42.00
2018-06-28T11:25:53.366Z,42.20
2018-06-28T11:32:45.887Z,42.70
2018-06-28T11:34:56.165Z,42.20
2018-06-28T11:37:05.268Z,41.70
2018-06-28T11:39:12.591Z,41.20
2018-06-28T11:41:17.858Z,41.10
2018-06-28T11:43:25.632Z,41.10
2018-06-28T11:45:29.789Z,40.80
2018-06-28T11:47:40.688Z,40.20
2018-06-28T11:49:45.322Z,40.20
2018-06-28T11:51:49.502Z,40.70
2018-06-28T11:53:54.594Z,40.90
2018-06-28T11:55:58.637Z,41.40
2018-06-28T11:58:04.333Z,41.40
2018-06-28T12:00:15.157Z,41.30
2018-06-28T12:02:19.763Z,40.50
2018-06-28T12:04:24.538Z,40.90
2018-06-28T12:06:29.723Z,41.40
2018-06-28T12:08:36.470Z,42.20
2018-06-28T12:10:42.838Z,42.80
2018-06-28T12:12:47.449Z,42.90
2018-06-28T12:14:51.612Z,42.20
2018-06-28T12:16:57.088Z,42.20
2018-06-28T12:19:02.346Z,42.20
2018-06-28T12:21:06.332Z,42.30
2018-06-28T12:23:10.415Z,41.10
2018-06-28T12:25:15.648Z,41.30
2018-06-28T12:27:25.160Z,41.90
2018-06-28T12:29:33.059Z,41.50
2018-06-28T12:31:39.236Z,41.40
2018-06-28T12:33:44.231Z,41.70
2018-06-28T12:37:59.091Z,42.00
2018-06-28T12:40:03.105Z,41.20
2018-06-28T12:42:09.437Z,41.70
2018-06-28T12:44:18.123Z,41.40
2018-06-28T12:46:32.651Z,41.00
2018-06-28T12:48:37.863Z,39.40
2018-06-28T12:50:50.304Z,39.40
2018-06-28T12:55:17.182Z,39.70
2018-06-28T12:57:21.835Z,40.00
2018-06-28T12:59:27.280Z,39.40
2018-06-28T13:01:32.385Z,39.40
2018-06-28T13:03:37.371Z,39.60
2018-06-28T13:05:42.377Z,39.40
2018-06-28T13:07:48.388Z,38.60
2018-06-28T13:09:52.536Z,37.80
2018-06-28T13:11:57.192Z,37.60
2018-06-28T13:14:02.491Z,37.60
2018-06-28T13:16:12.941Z,37.70
2018-06-28T13:18:48.985Z,37.00
2018-06-28T13:20:53.894Z,37.20
2018-06-28T13:22:58.823Z,36.50
2018-06-28T13:25:07.566Z,35.90
2018-06-28T13:27:13.188Z,35.90
2018-06-28T13:29:17.445Z,36.10
2018-06-28T13:31:23.107Z,35.50
2018-06-28T13:33:28.787Z,35.10
2018-06-28T13:35:33.000Z,35.30
2018-06-28T13:37:37.295Z,35.80
2018-06-28T13:39:45.264Z,35.90
2018-06-28T13:44:03.044Z,36.00
2018-06-28T13:46:07.598Z,35.80
2018-06-28T13:48:12.308Z,35.90
2018-06-28T13:52:31.507Z,37.10
2018-06-28T13:54:39.675Z,35.50
2018-06-28T14:00:01.009Z,35.20
2018-06-28T14:02:09.082Z,34.90
2018-06-28T14:04:18.773Z,34.00
2018-06-28T14:06:29.231Z,33.50
2018-06-28T14:08:41.282Z,34.60
2018-06-28T14:10:45.610Z,34.40
2018-06-28T14:12:52.612Z,34.10
2018-06-28T14:15:00.297Z,34.30
2018-06-28T14:17:15.865Z,34.90
2018-06-28T14:19:29.441Z,36.00
2018-06-28T14:21:36.231Z,36.90
2018-06-28T14:23:45.151Z,37.60
2018-06-28T14:25:53.806Z,38.40
2018-06-28T14:28:04.327Z,38.30
2018-06-28T14:30:13.420Z,39.10
2018-06-28T14:32:24.340Z,39.20
2018-06-28T14:34:31.507Z,39.80
2018-06-28T14:36:36.612Z,40.20
2018-06-28T14:38:42.600Z,40.60
2018-06-28T14:40:48.450Z,40.50
2018-06-28T14:42:58.526Z,40.60
2018-06-28T14:45:04.648Z,40.90
2018-06-28T14:47:14.682Z,41.30
2018-06-28T14:49:20.362Z,41.60
2018-06-28T14:51:27.173Z,42.10
2018-06-28T14:53:32.219Z,42.60
2018-06-28T14:55:36.232Z,43.00
2018-06-28T14:57:49.508Z,43.30
2018-06-28T15:00:01.073Z,43.60
2018-06-28T15:02:05.451Z,44.30
2018-06-28T15:04:10.384Z,44.80
2018-06-28T15:06:15.771Z,45.00
2018-06-28T15:08:25.240Z,45.00
2018-06-28T15:10:30.186Z,44.70
2018-06-28T15:12:36.074Z,43.30
2018-06-28T15:14:40.765Z,43.20
2018-06-28T15:16:44.782Z,43.40
2018-06-28T15:18:56.493Z,43.30
2018-06-28T15:21:01.675Z,43.30
2018-06-28T15:23:08.625Z,43.00
2018-06-28T15:25:17.174Z,42.90
2018-06-28T15:27:21.879Z,43.60
2018-06-28T15:29:27.228Z,43.00
2018-06-28T15:31:48.371Z,43.30
2018-06-28T15:33:56.402Z,42.50
2018-06-28T15:36:15.810Z,42.20
2018-06-28T15:38:20.390Z,40.80
2018-06-28T15:40:24.335Z,40.90
2018-06-28T15:42:32.757Z,40.30
2018-06-28T15:44:37.041Z,39.60
2018-06-28T15:46:41.352Z,39.50
2018-06-28T15:48:47.362Z,39.60
2018-06-28T15:50:54.418Z,39.80
2018-06-28T15:53:01.341Z,39.60
2018-06-28T15:55:05.836Z,38.80
2018-06-28T15:57:14.446Z,38.20
2018-06-28T15:59:22.721Z,38.10
2018-06-28T16:01:27.259Z,37.30
2018-06-28T16:03:35.800Z,37.50
2018-06-28T16:05:42.032Z,39.00
2018-06-28T16:07:48.844Z,39.40
2018-06-28T16:09:55.058Z,40.00
2018-06-28T16:12:00.147Z,40.80
2018-06-28T16:14:09.343Z,41.70
2018-06-28T16:16:17.759Z,42.60
2018-06-28T16:18:22.304Z,43.20
2018-06-28T16:20:28.607Z,43.00
2018-06-28T16:22:33.597Z,43.80
2018-06-28T16:24:37.727Z,44.30
2018-06-28T16:26:43.407Z,44.00
2018-06-28T16:28:57.759Z,44.20
2018-06-28T16:31:02.449Z,44.10
2018-06-28T16:33:07.368Z,44.50
2018-06-28T16:35:13.559Z,44.70
2018-06-28T16:37:18.127Z,44.80
2018-06-28T16:39:23.390Z,44.30
2018-06-28T16:41:32.188Z,43.50
2018-06-28T16:43:37.796Z,41.70
2018-06-28T16:45:42.903Z,40.00
2018-06-28T16:47:50.730Z,39.40
2018-06-28T16:49:56.219Z,38.40
2018-06-28T16:52:01.876Z,38.30
2018-06-28T16:56:10.688Z,37.90
2018-06-28T16:58:15.942Z,37.80
2018-06-28T17:00:22.624Z,37.30
2018-06-28T17:02:31.205Z,37.60
2018-06-28T17:04:36.602Z,38.10
2018-06-28T17:06:45.550Z,38.40
2018-06-28T17:08:51.810Z,38.90
2018-06-28T17:10:58.130Z,39.30
2018-06-28T17:13:06.482Z,39.80
2018-06-28T17:15:13.419Z,39.30
2018-06-28T17:17:20.507Z,39.50
2018-06-28T17:19:26.223Z,39.90
2018-06-28T17:23:37.350Z,40.50
2018-06-28T17:25:43.786Z,40.60
2018-06-28T17:27:47.777Z,40.40
2018-06-28T17:29:52.204Z,40.60
2018-06-28T17:31:58.221Z,40.90
2018-06-28T17:34:08.600Z,41.30
2018-06-28T17:36:13.308Z,41.90
2018-06-28T17:38:18.508Z,43.00
2018-06-28T17:40:24.305Z,44.10
2018-06-28T17:44:35.106Z,45.40
2018-06-28T17:46:47.104Z,45.70
2018-06-28T17:49:06.625Z,46.00
2018-06-28T17:51:14.685Z,46.60
2018-06-28T17:53:19.277Z,46.80
2018-06-28T17:55:28.843Z,47.00
2018-06-28T17:57:36.670Z,47.50
2018-06-28T17:59:41.992Z,47.60
2018-06-28T18:01:49.396Z,47.20
2018-06-28T18:03:55.783Z,47.60
2018-06-28T18:06:08.277Z,47.60
2018-06-28T18:08:14.820Z,47.30
2018-06-28T18:10:27.556Z,47.50
2018-06-28T18:12:34.338Z,47.70
2018-06-28T18:14:40.508Z,47.80
2018-06-28T18:16:47.021Z,47.80
2018-06-28T18:18:51.179Z,47.70
2018-06-28T18:20:59.450Z,47.70
2018-06-28T18:23:04.645Z,48.00
2018-06-28T18:25:13.063Z,47.70
2018-06-28T18:27:18.487Z,47.90
2018-06-28T18:29:26.054Z,47.90
2018-06-28T18:31:31.773Z,48.10
2018-06-28T18:33:39.067Z,48.20
2018-06-28T18:35:45.022Z,48.30
2018-06-28T18:37:51.565Z,48.40
2018-06-28T18:39:58.301Z,48.90
2018-06-28T18:42:04.672Z,48.80
2018-06-28T18:44:13.095Z,48.80
2018-06-28T18:46:20.990Z,49.10
2018-06-28T18:48:30.322Z,49.40
2018-06-28T18:50:35.087Z,49.40
2018-06-28T18:52:40.464Z,49.40
2018-06-28T18:54:46.868Z,49.60
2018-06-28T18:56:53.417Z,49.60
2018-06-28T18:59:12.680Z,49.70
2018-06-28T19:01:23.971Z,50.00
2018-06-28T19:03:33.628Z,50.10
2018-06-28T19:05:40.307Z,50.00
2018-06-28T19:07:48.272Z,50.20
2018-06-28T19:09:58.616Z,50.40
2018-06-28T19:12:06.721Z,50.30
2018-06-28T19:14:18.795Z,50.70
2018-06-28T19:16:32.901Z,50.90
2018-06-28T19:18:38.822Z,51.10
2018-06-28T19:20:51.079Z,51.00
2018-06-28T19:23:04.393Z,51.30
2018-06-28T19:25:13.643Z,51.10
2018-06-28T19:27:21.077Z,51.30
2018-06-28T19:29:31.065Z,51.40
2018-06-28T19:31:40.343Z,51.30
2018-06-28T19:33:45.556Z,51.20
2018-06-28T19:38:01.232Z,52.10
2018-06-28T19:40:13.130Z,51.60
2018-06-28T19:42:23.121Z,51.40
2018-06-28T19:44:31.088Z,51.20
2018-06-28T19:46:35.313Z,51.50
2018-06-28T19:48:41.396Z,51.70
2018-06-28T19:50:52.545Z,51.80
2018-06-28T19:53:00.473Z,51.90
2018-06-28T19:55:08.236Z,51.70
2018-06-28T19:57:16.444Z,51.90
2018-06-28T19:59:20.930Z,52.00
2018-06-28T20:01:34.383Z,52.00
2018-06-28T20:03:44.663Z,52.30
2018-06-28T20:05:49.241Z,52.40
2018-06-28T20:07:55.494Z,52.40
2018-06-28T20:10:04.845Z,52.50
2018-06-28T20:12:21.473Z,52.60
2018-06-28T20:14:32.309Z,52.80
2018-06-28T20:16:42.859Z,53.10
2018-06-28T20:18:53.929Z,53.10
2018-06-28T20:21:02.754Z,53.00
2018-06-28T20:23:10.808Z,53.10
2018-06-28T20:25:16.790Z,53.20
2018-06-28T20:27:28.230Z,53.30
2018-06-28T20:29:39.856Z,53.20
2018-06-28T20:31:57.157Z,53.20
2018-06-28T20:34:11.339Z,53.40
2018-06-28T20:36:22.250Z,53.10
2018-06-28T20:38:27.868Z,53.10
2018-06-28T20:40:38.393Z,52.90
2018-06-28T20:42:46.483Z,53.00
2018-06-28T20:45:00.804Z,53.30
2018-06-28T20:47:07.132Z,53.40
2018-06-28T20:49:16.996Z,53.40
2018-06-28T20:51:21.926Z,53.00
2018-06-28T20:53:30.211Z,53.30
2018-06-28T20:55:36.744Z,53.40
2018-06-28T20:57:43.855Z,53.40
2018-06-28T20:59:48.947Z,53.50
2018-06-28T21:02:00.565Z,53.70
2018-06-28T21:04:06.601Z,54.10
2018-06-28T21:06:16.323Z,54.10
2018-06-28T21:08:20.653Z,54.50
2018-06-28T21:10:26.616Z,54.60
2018-06-28T21:12:35.199Z,54.80
2018-06-28T21:14:41.948Z,55.10
2018-06-28T21:16:48.598Z,54.70
2018-06-28T21:18:53.238Z,54.80
2018-06-28T21:21:08.470Z,54.10
2018-06-28T21:23:20.671Z,53.70
2018-06-28T21:25:30.369Z,53.20
2018-06-28T21:27:36.283Z,52.60
2018-06-28T21:29:43.244Z,52.50
2018-06-28T21:31:56.826Z,52.50
2018-06-28T21:34:01.697Z,52.60
2018-06-28T21:36:10.695Z,52.50
2018-06-28T21:40:25.856Z,52.70
2018-06-28T21:42:30.849Z,52.80
2018-06-28T21:44:34.920Z,52.70
2018-06-28T21:46:42.769Z,52.70
2018-06-28T21:48:48.287Z,52.80
2018-06-28T21:50:53.413Z,52.90
2018-06-28T21:53:01.021Z,52.90
2018-06-28T21:55:08.716Z,53.10
2018-06-28T21:59:19.694Z,53.00
2018-06-28T22:01:27.788Z,52.90
2018-06-28T22:03:32.986Z,52.80
2018-06-28T22:05:39.694Z,52.80
2018-06-28T22:07:44.661Z,52.80
2018-06-28T22:09:50.453Z,52.90
2018-06-28T22:11:55.074Z,53.00
2018-06-28T22:14:01.311Z,52.90
2018-06-28T22:16:06.294Z,53.00
2018-06-28T22:18:12.432Z,53.00
2018-06-28T22:20:18.515Z,52.80
2018-06-28T22:22:25.912Z,52.80
2018-06-28T22:24:31.161Z,52.80
2018-06-28T22:28:39.935Z,52.90
2018-06-28T22:30:45.776Z,53.10
2018-06-28T22:32:50.358Z,53.20
2018-06-28T22:34:57.019Z,53.30
2018-06-28T22:37:01.887Z,53.30
2018-06-28T22:39:12.099Z,53.40
2018-06-28T22:41:17.688Z,53.60
2018-06-28T22:43:25.224Z,53.80
2018-06-28T22:45:34.376Z,54.00
2018-06-28T22:49:53.765Z,55.20
2018-06-28T22:52:00.664Z,54.40
2018-06-28T22:54:07.748Z,54.40
2018-06-28T22:56:14.393Z,54.50
2018-06-28T22:58:18.608Z,54.40
2018-06-28T23:00:30.490Z,54.40
2018-06-28T23:02:42.344Z,54.40
2018-06-28T23:04:46.491Z,54.60
2018-06-28T23:06:51.892Z,54.80
2018-06-28T23:08:56.781Z,54.80
2018-06-28T23:11:00.673Z,54.70
2018-06-28T23:13:13.765Z,54.70
2018-06-28T23:15:18.715Z,54.80
2018-06-28T23:17:22.664Z,55.60
2018-06-28T23:19:28.602Z,55.50
2018-06-28T23:21:33.777Z,55.30
2018-06-28T23:23:39.904Z,55.10
2018-06-28T23:25:47.748Z,55.40
2018-06-28T23:27:53.367Z,55.40
2018-06-28T23:29:59.352Z,55.40
2018-06-28T23:32:05.880Z,55.40
2018-06-28T23:34:10.460Z,55.40
2018-06-28T23:36:14.670Z,55.40
2018-06-28T23:38:20.045Z,55.60
2018-06-28T23:40:25.964Z,56.50
2018-06-28T23:42:47.403Z,57.10
2018-06-28T23:44:52.382Z,58.00
2018-06-28T23:46:56.508Z,58.70
2018-06-28T23:49:00.614Z,58.80
2018-06-28T23:51:11.535Z,58.80
2018-06-28T23:53:15.762Z,58.80
2018-06-28T23:55:19.746Z,59.40
2018-06-28T23:57:27.072Z,59.80
2018-06-28T23:59:30.988Z,59.80
